Information Last Ob Photographs Calibration Meteogram Network Table Neighbors Monthly Summaries Observation History Wind Roses Custom Wind Roses Data Calendar Satellite Cloud Product Download

Most Recent Observation

This application displays the last observation received by the IEM from this site. The time stamp is in America/Chicago timezone.

Observation Local Time01 Mar 2024, 11:55 PM
Observation UTC Time2024-03-02T05:55:00Z
Air Temp [F]33
Maximum Air Temperature [F]52.3
Minimum Air Temperature [F]28
Dew Point [F]30.2
Wind DirectionS (170 degrees)
Wind Speed [knots]9
Altimeter [inches]29.98
Raw Observation/ProductKIIB 020555Z AUTO 17009KT 10SM CLR 01/M01 A2998 RMK AO2 T00061010 10071 20006
Cloud Layer 1: CLR ( feet)

This data was provided by a JSON(P) webservice. You can find more JSON services.